createdAt,value
2019-05-23T00:04:12.275Z,12.70
2019-05-23T00:06:41.116Z,12.60
2019-05-23T00:09:10.176Z,12.50
2019-05-23T00:11:40.532Z,12.40
2019-05-23T00:14:14.871Z,12.40
2019-05-23T00:16:43.763Z,12.30
2019-05-23T00:19:12.565Z,12.20
2019-05-23T00:21:41.422Z,12.20
2019-05-23T00:24:10.240Z,12.20
2019-05-23T00:26:39.077Z,12.20
2019-05-23T00:29:10.298Z,12.10
2019-05-23T00:31:37.477Z,12.20
2019-05-23T00:34:06.329Z,12.20
2019-05-23T00:39:04.619Z,12.10
2019-05-23T00:41:33.477Z,12.10
2019-05-23T00:44:02.312Z,12.20
2019-05-23T00:49:00.563Z,12.10
2019-05-23T00:51:29.410Z,12.00
2019-05-23T00:53:58.250Z,12.10
2019-05-23T00:56:27.099Z,12.10
2019-05-23T00:58:56.707Z,12.00
2019-05-23T01:01:25.584Z,12.00
2019-05-23T01:03:54.445Z,12.00
2019-05-23T01:06:23.254Z,12.00
2019-05-23T01:08:52.841Z,12.00
2019-05-23T01:11:21.733Z,12.00
2019-05-23T01:13:50.500Z,12.00
2019-05-23T01:16:19.347Z,12.10
2019-05-23T01:18:48.181Z,12.00
2019-05-23T01:21:20.962Z,12.00
2019-05-23T01:23:51.621Z,12.10
2019-05-23T01:26:20.463Z,12.00
2019-05-23T01:28:49.305Z,12.00
2019-05-23T01:31:18.161Z,11.90
2019-05-23T01:33:46.988Z,11.90
2019-05-23T01:36:15.833Z,11.90
2019-05-23T01:38:44.671Z,11.90
2019-05-23T01:41:14.243Z,11.90
2019-05-23T01:43:43.078Z,11.90
2019-05-23T01:46:11.920Z,11.80
2019-05-23T01:48:40.754Z,11.80
2019-05-23T01:51:09.597Z,11.80
2019-05-23T01:53:38.425Z,11.80
2019-05-23T01:56:08.031Z,11.70
2019-05-23T01:58:36.866Z,11.70
2019-05-23T02:01:05.705Z,11.60
2019-05-23T02:03:34.539Z,11.60
2019-05-23T02:06:03.392Z,11.50
2019-05-23T02:08:32.254Z,11.50
2019-05-23T02:11:01.101Z,11.50
2019-05-23T02:13:29.953Z,11.40
2019-05-23T02:15:59.529Z,11.30
2019-05-23T02:18:28.367Z,11.40
2019-05-23T02:20:57.221Z,11.40
2019-05-23T02:23:26.816Z,11.40
2019-05-23T02:25:55.653Z,11.40
2019-05-23T02:28:24.497Z,11.40
2019-05-23T02:30:53.316Z,11.40
2019-05-23T02:33:22.173Z,11.40
2019-05-23T02:35:51.019Z,11.30
2019-05-23T02:38:25.369Z,11.30
2019-05-23T02:41:00.072Z,11.20
2019-05-23T02:43:28.925Z,11.30
2019-05-23T02:45:59.682Z,11.20
2019-05-23T02:48:28.486Z,11.20
2019-05-23T02:50:57.313Z,11.20
2019-05-23T02:55:57.019Z,11.10
2019-05-23T02:58:27.790Z,11.10
2019-05-23T03:00:59.195Z,11.10
2019-05-23T03:03:28.922Z,11.00
2019-05-23T03:05:57.732Z,11.00
2019-05-23T03:08:26.591Z,11.00
2019-05-23T03:10:55.438Z,11.00
2019-05-23T03:13:24.273Z,10.90
2019-05-23T03:15:53.112Z,10.90
2019-05-23T03:18:21.963Z,10.90
2019-05-23T03:23:21.054Z,10.80
2019-05-23T03:28:39.029Z,10.80
2019-05-23T03:31:27.233Z,10.80
2019-05-23T03:33:36.708Z,10.70
2019-05-23T03:36:05.541Z,10.70
2019-05-23T03:38:34.369Z,10.70
2019-05-23T03:41:03.200Z,10.80
2019-05-23T03:43:32.059Z,10.70
2019-05-23T03:46:00.906Z,10.70
2019-05-23T03:48:29.755Z,10.60
2019-05-23T03:50:58.594Z,10.70
2019-05-23T03:53:27.434Z,10.70
2019-05-23T03:55:56.271Z,10.70
2019-05-23T03:58:25.107Z,10.70
2019-05-23T04:00:53.979Z,10.70
2019-05-23T04:03:22.796Z,10.70
2019-05-23T04:05:51.634Z,10.80
2019-05-23T04:08:20.468Z,10.80
2019-05-23T04:10:51.818Z,10.80
2019-05-23T04:13:18.122Z,10.80
2019-05-23T04:15:46.961Z,10.80
2019-05-23T04:18:15.793Z,10.80
2019-05-23T04:20:44.649Z,10.70
2019-05-23T04:23:13.491Z,10.70
2019-05-23T04:28:11.782Z,10.70
2019-05-23T04:30:40.629Z,10.80
2019-05-23T04:33:09.462Z,10.80
2019-05-23T04:38:08.458Z,10.80
2019-05-23T04:40:37.287Z,10.90
2019-05-23T04:43:06.130Z,10.90
2019-05-23T04:45:34.961Z,10.90
2019-05-23T04:48:03.802Z,11.00
2019-05-23T04:50:32.656Z,11.10
2019-05-23T04:53:01.485Z,11.20
2019-05-23T04:55:30.331Z,11.30
2019-05-23T04:57:59.173Z,11.30
2019-05-23T05:00:28.002Z,11.30
2019-05-23T05:02:56.845Z,11.30
2019-05-23T05:05:25.733Z,11.40
2019-05-23T05:07:54.576Z,11.40
2019-05-23T05:10:23.426Z,11.40
2019-05-23T05:12:52.285Z,11.40
2019-05-23T05:15:21.138Z,11.50
2019-05-23T05:17:49.966Z,11.60
2019-05-23T05:20:18.809Z,11.50
2019-05-23T05:22:47.682Z,11.50
2019-05-23T05:25:16.535Z,11.50
2019-05-23T05:27:45.367Z,11.60
2019-05-23T05:30:14.993Z,11.60
2019-05-23T05:35:13.254Z,11.70
2019-05-23T05:37:42.827Z,11.70
2019-05-23T05:40:11.689Z,11.80
2019-05-23T05:42:40.519Z,11.70
2019-05-23T05:45:09.412Z,11.70
2019-05-23T05:47:38.224Z,11.80
2019-05-23T05:50:07.084Z,11.80
2019-05-23T05:52:35.992Z,11.90
2019-05-23T05:55:04.833Z,11.90
2019-05-23T05:57:33.678Z,11.90
2019-05-23T06:00:03.259Z,12.00
2019-05-23T06:02:32.853Z,12.00
2019-05-23T06:05:01.712Z,12.00
2019-05-23T06:07:31.329Z,12.20
2019-05-23T06:10:00.167Z,12.20
2019-05-23T06:12:28.999Z,12.30
2019-05-23T06:14:57.849Z,12.30
2019-05-23T06:17:26.723Z,12.30
2019-05-23T06:19:55.565Z,12.40
2019-05-23T06:22:24.447Z,12.40
2019-05-23T06:24:56.064Z,12.50
2019-05-23T06:27:22.410Z,12.40
2019-05-23T06:29:51.112Z,12.50
2019-05-23T06:32:20.012Z,12.60
2019-05-23T06:34:48.816Z,12.60
2019-05-23T06:37:17.661Z,12.70
2019-05-23T06:39:46.515Z,12.80
2019-05-23T06:42:15.336Z,12.90
2019-05-23T06:44:45.490Z,12.90
2019-05-23T06:47:13.802Z,13.00
2019-05-23T06:49:42.637Z,13.10
2019-05-23T06:52:11.476Z,13.20
2019-05-23T06:54:40.317Z,13.20
2019-05-23T06:57:09.165Z,13.30
2019-05-23T06:59:38.078Z,13.40
2019-05-23T07:02:06.921Z,13.50
2019-05-23T07:04:35.785Z,13.60
2019-05-23T07:07:04.675Z,13.70
2019-05-23T07:09:33.465Z,13.70
2019-05-23T07:12:02.323Z,13.80
2019-05-23T07:14:31.179Z,13.90
2019-05-23T07:17:00.040Z,14.00
2019-05-23T07:19:28.872Z,14.10
2019-05-23T07:21:57.720Z,14.10
2019-05-23T07:24:26.569Z,14.20
2019-05-23T07:26:56.139Z,14.20
2019-05-23T07:29:24.977Z,14.30
2019-05-23T07:31:53.811Z,14.40
2019-05-23T07:34:22.658Z,14.50
2019-05-23T07:36:52.241Z,14.50
2019-05-23T07:39:21.107Z,14.60
2019-05-23T07:41:49.946Z,14.70
2019-05-23T07:44:18.783Z,14.80
2019-05-23T07:46:47.628Z,14.80
2019-05-23T07:49:16.467Z,14.90
2019-05-23T07:51:45.311Z,15.00
2019-05-23T07:54:16.948Z,15.00
2019-05-23T07:56:46.524Z,15.10
2019-05-23T07:59:15.425Z,15.20
2019-05-23T08:01:44.268Z,15.30
2019-05-23T08:04:21.345Z,15.40
2019-05-23T08:06:42.709Z,15.50
2019-05-23T08:09:11.592Z,15.60
2019-05-23T08:11:40.393Z,15.60
2019-05-23T08:14:11.958Z,15.60
2019-05-23T08:16:38.832Z,15.70
2019-05-23T08:19:07.688Z,15.80
2019-05-23T08:24:06.099Z,16.00
2019-05-23T08:26:34.803Z,16.10
2019-05-23T08:29:24.531Z,16.20
2019-05-23T08:31:33.383Z,16.20
2019-05-23T08:34:02.148Z,16.20
2019-05-23T08:36:30.944Z,16.30
2019-05-23T08:39:00.562Z,16.40
2019-05-23T08:41:30.153Z,16.50
2019-05-23T08:43:59.741Z,16.50
2019-05-23T08:47:06.879Z,16.70
2019-05-23T08:49:35.719Z,16.80
2019-05-23T08:52:04.555Z,16.90
2019-05-23T08:54:33.452Z,17.00
2019-05-23T08:57:02.297Z,17.00
2019-05-23T08:59:31.135Z,17.00
2019-05-23T09:01:59.969Z,17.10
2019-05-23T09:04:28.839Z,17.20
2019-05-23T09:06:57.674Z,17.20
2019-05-23T09:09:30.277Z,17.40
2019-05-23T09:11:57.091Z,17.40
2019-05-23T09:14:26.531Z,17.40
2019-05-23T09:16:55.550Z,17.50
2019-05-23T09:21:57.869Z,17.60
2019-05-23T09:24:22.508Z,17.60
2019-05-23T09:26:51.372Z,17.70
2019-05-23T09:29:20.188Z,17.70
2019-05-23T09:31:49.032Z,17.60
2019-05-23T09:34:18.620Z,17.80
2019-05-23T09:36:47.458Z,17.90
2019-05-23T09:39:16.289Z,17.90
2019-05-23T09:41:45.161Z,18.00
2019-05-23T09:44:13.975Z,18.00
2019-05-23T09:46:42.829Z,18.10
2019-05-23T09:49:11.767Z,18.10
2019-05-23T09:51:41.259Z,18.10
2019-05-23T09:54:10.102Z,18.10
2019-05-23T09:56:38.944Z,18.20
2019-05-23T09:59:08.600Z,18.10
2019-05-23T10:01:38.145Z,18.30
2019-05-23T10:04:06.998Z,18.30
2019-05-23T10:06:35.828Z,18.50
2019-05-23T10:09:04.716Z,18.60
2019-05-23T10:11:34.009Z,18.50
2019-05-23T10:14:02.846Z,18.60
2019-05-23T10:16:31.673Z,18.80
2019-05-23T10:19:00.525Z,18.90
2019-05-23T10:21:29.351Z,18.90
2019-05-23T10:23:58.194Z,18.90
2019-05-23T10:26:27.826Z,18.90
2019-05-23T10:28:57.365Z,19.00
2019-05-23T10:33:55.623Z,19.10
2019-05-23T10:36:24.480Z,19.30
2019-05-23T10:38:54.067Z,19.40
2019-05-23T10:41:23.679Z,19.50
2019-05-23T10:43:53.304Z,19.40
2019-05-23T10:46:22.887Z,19.50
2019-05-23T10:48:51.736Z,19.80
2019-05-23T10:51:20.573Z,19.90
2019-05-23T10:53:49.428Z,20.00
2019-05-23T10:56:20.607Z,20.00
2019-05-23T10:58:47.120Z,20.00
2019-05-23T11:01:15.998Z,20.00
2019-05-23T11:03:44.804Z,20.10
2019-05-23T11:06:16.723Z,20.00
2019-05-23T11:08:43.255Z,20.20
2019-05-23T11:11:14.695Z,20.30
2019-05-23T11:13:40.908Z,20.50
2019-05-23T11:16:09.759Z,20.50
2019-05-23T11:18:38.601Z,20.60
2019-05-23T11:21:07.454Z,20.50
2019-05-23T11:23:41.932Z,20.70
2019-05-23T11:26:10.778Z,20.70
2019-05-23T11:28:40.369Z,20.90
2019-05-23T11:31:09.960Z,20.90
2019-05-23T11:33:39.600Z,21.10
2019-05-23T11:36:09.395Z,20.90
2019-05-23T11:38:38.228Z,21.00
2019-05-23T11:41:07.074Z,21.20
2019-05-23T11:46:05.380Z,21.10
2019-05-23T11:48:34.972Z,21.20
2019-05-23T11:51:04.542Z,21.30
2019-05-23T11:53:33.398Z,21.50
2019-05-23T11:56:02.230Z,21.70
2019-05-23T11:58:32.689Z,21.50
2019-05-23T12:01:07.123Z,21.50
2019-05-23T12:03:35.983Z,21.60
2019-05-23T12:08:34.324Z,21.60
2019-05-23T12:11:03.175Z,21.80
2019-05-23T12:13:32.022Z,21.80
2019-05-23T12:16:00.845Z,21.90
2019-05-23T12:18:29.696Z,22.00
2019-05-23T12:20:59.668Z,22.10
2019-05-23T12:23:28.122Z,22.30
2019-05-23T12:25:56.985Z,22.20
2019-05-23T12:28:25.827Z,22.30
2019-05-23T12:30:54.683Z,22.40
2019-05-23T12:33:23.528Z,22.20
2019-05-23T12:35:52.362Z,22.40
2019-05-23T12:38:21.217Z,22.60
2019-05-23T12:40:50.059Z,22.30
2019-05-23T12:43:18.898Z,22.20
2019-05-23T12:45:47.754Z,22.70
2019-05-23T12:48:22.230Z,22.20
2019-05-23T12:50:53.973Z,22.50
2019-05-23T12:53:20.753Z,22.60
2019-05-23T12:55:49.616Z,22.80
2019-05-23T12:58:18.451Z,22.70
2019-05-23T13:00:47.350Z,22.80
2019-05-23T13:03:16.125Z,23.20
2019-05-23T13:05:44.999Z,23.40
2019-05-23T13:08:13.863Z,23.40
2019-05-23T13:10:42.926Z,23.40
2019-05-23T13:13:11.563Z,23.40
2019-05-23T13:15:40.427Z,23.40
2019-05-23T13:18:09.233Z,23.70
2019-05-23T13:20:38.090Z,23.50
2019-05-23T13:23:07.596Z,23.40
2019-05-23T13:25:35.850Z,23.70
2019-05-23T13:28:05.474Z,23.80
2019-05-23T13:30:34.280Z,23.60
2019-05-23T13:33:03.904Z,23.50
2019-05-23T13:35:31.974Z,23.60
2019-05-23T13:40:30.303Z,23.90
2019-05-23T13:42:59.137Z,24.00
2019-05-23T13:45:27.980Z,24.30
2019-05-23T13:47:57.558Z,24.00
2019-05-23T13:50:26.418Z,24.10
2019-05-23T13:52:55.256Z,24.30
2019-05-23T13:55:24.882Z,24.30
2019-05-23T13:57:54.416Z,24.40
2019-05-23T14:00:23.299Z,24.50
2019-05-23T14:02:52.878Z,24.30
2019-05-23T14:05:22.473Z,24.40
2019-05-23T14:07:51.326Z,24.60
2019-05-23T14:10:20.180Z,24.80
2019-05-23T14:12:49.035Z,24.90
2019-05-23T14:15:18.624Z,24.70
2019-05-23T14:17:47.468Z,25.10
2019-05-23T14:20:16.308Z,25.10
2019-05-23T14:22:45.168Z,25.00
2019-05-23T14:25:14.011Z,25.00
2019-05-23T14:27:42.876Z,25.10
2019-05-23T14:30:14.425Z,25.10
2019-05-23T14:32:41.411Z,25.10
2019-05-23T14:35:10.265Z,25.40
2019-05-23T14:37:39.844Z,25.20
2019-05-23T14:40:08.676Z,25.30
2019-05-23T14:42:41.058Z,25.30
2019-05-23T14:45:15.712Z,24.90
2019-05-23T14:47:44.634Z,24.80
2019-05-23T14:50:14.168Z,24.90
2019-05-23T14:52:44.575Z,25.00
2019-05-23T14:55:13.395Z,25.20
2019-05-23T14:57:42.221Z,25.00
2019-05-23T15:00:11.056Z,24.90
2019-05-23T15:02:40.654Z,24.80
2019-05-23T15:05:09.486Z,24.50
2019-05-23T15:07:38.334Z,24.50
2019-05-23T15:10:07.182Z,24.50
2019-05-23T15:12:36.032Z,24.70
2019-05-23T15:15:05.155Z,24.80
2019-05-23T15:17:33.713Z,24.80
2019-05-23T15:20:02.595Z,25.10
2019-05-23T15:22:32.191Z,24.80
2019-05-23T15:25:01.025Z,24.90
2019-05-23T15:27:32.919Z,24.80
2019-05-23T15:29:59.460Z,24.80
2019-05-23T15:32:28.285Z,25.00
2019-05-23T15:34:57.127Z,25.00
2019-05-23T15:37:26.030Z,24.80
2019-05-23T15:39:54.829Z,25.00
2019-05-23T15:42:24.425Z,25.40
2019-05-23T15:44:53.254Z,25.30
2019-05-23T15:47:22.839Z,25.30
2019-05-23T15:49:52.451Z,25.40
2019-05-23T15:52:24.049Z,25.30
2019-05-23T15:54:52.602Z,25.40
2019-05-23T15:57:22.304Z,25.20
2019-05-23T15:59:51.909Z,25.40
2019-05-23T16:02:20.738Z,25.50
2019-05-23T16:04:49.649Z,25.40
2019-05-23T16:07:18.462Z,25.20
2019-05-23T16:09:47.326Z,25.30
2019-05-23T16:12:16.165Z,25.10
2019-05-23T16:14:45.022Z,25.20
2019-05-23T16:17:13.864Z,25.30
2019-05-23T16:19:42.701Z,25.20
2019-05-23T16:22:11.536Z,25.20
2019-05-23T16:24:40.377Z,25.00
2019-05-23T16:27:09.231Z,25.10
2019-05-23T16:29:38.082Z,25.10
2019-05-23T16:32:07.042Z,25.20
2019-05-23T16:34:35.938Z,25.10
2019-05-23T16:37:04.764Z,25.00
2019-05-23T16:39:46.439Z,24.90
2019-05-23T16:42:02.461Z,24.90
2019-05-23T16:44:31.435Z,25.00
2019-05-23T16:47:00.170Z,24.90
2019-05-23T16:49:29.004Z,24.90
2019-05-23T16:51:57.846Z,24.90
2019-05-23T16:54:26.701Z,24.70
2019-05-23T16:56:55.651Z,24.70
2019-05-23T16:59:27.250Z,24.60
2019-05-23T17:02:05.312Z,24.50
2019-05-23T17:04:28.728Z,24.50
2019-05-23T17:06:59.447Z,24.30
2019-05-23T17:09:31.475Z,24.30
2019-05-23T17:11:58.779Z,24.10
2019-05-23T17:14:30.374Z,24.00
2019-05-23T17:17:05.236Z,23.80
2019-05-23T17:19:32.584Z,23.70
2019-05-23T17:22:01.451Z,23.50
2019-05-23T17:24:31.025Z,23.50
2019-05-23T17:27:02.766Z,23.40
2019-05-23T17:29:37.617Z,23.20
2019-05-23T17:32:06.460Z,22.90
2019-05-23T17:34:35.300Z,22.90
2019-05-23T17:37:04.148Z,22.80
2019-05-23T17:39:33.016Z,22.60
2019-05-23T17:42:02.597Z,22.60
2019-05-23T17:44:31.467Z,22.50
2019-05-23T17:47:00.291Z,22.40
2019-05-23T17:49:29.918Z,22.30
2019-05-23T17:51:58.733Z,22.30
2019-05-23T17:54:27.616Z,22.30
2019-05-23T17:59:37.496Z,22.20
2019-05-23T18:02:06.299Z,22.10
2019-05-23T18:04:35.161Z,22.00
2019-05-23T18:07:04.021Z,22.00
2019-05-23T18:09:33.637Z,21.90
2019-05-23T18:12:02.507Z,22.00
2019-05-23T18:14:32.104Z,21.90
2019-05-23T18:17:00.949Z,21.80
2019-05-23T18:19:29.811Z,21.80
2019-05-23T18:21:58.666Z,21.80
2019-05-23T18:24:27.683Z,21.70
2019-05-23T18:26:56.388Z,21.70
2019-05-23T18:29:25.238Z,21.70
2019-05-23T18:31:54.083Z,21.50
2019-05-23T18:34:22.960Z,21.50
2019-05-23T18:36:51.802Z,21.40
2019-05-23T18:39:20.656Z,21.30
2019-05-23T18:41:49.505Z,21.30
2019-05-23T18:44:19.084Z,21.20
2019-05-23T18:46:47.970Z,21.10
2019-05-23T18:49:16.776Z,21.10
2019-05-23T18:51:45.629Z,21.00
2019-05-23T18:54:14.463Z,20.90
2019-05-23T18:56:43.314Z,20.90
2019-05-23T18:59:12.162Z,20.80
2019-05-23T19:01:41.009Z,20.70
2019-05-23T19:04:09.903Z,20.70
2019-05-23T19:06:38.715Z,20.60
2019-05-23T19:09:07.571Z,20.60
2019-05-23T19:11:36.415Z,20.50
2019-05-23T19:14:05.316Z,20.50
2019-05-23T19:16:34.925Z,20.30
2019-05-23T19:19:04.476Z,20.30
2019-05-23T19:21:33.303Z,20.20
2019-05-23T19:24:02.161Z,20.20
2019-05-23T19:26:32.464Z,20.10
2019-05-23T19:29:01.377Z,20.00
2019-05-23T19:31:30.163Z,19.90
2019-05-23T19:33:59.031Z,19.90
2019-05-23T19:36:27.925Z,19.80
2019-05-23T19:38:56.747Z,19.80
2019-05-23T19:41:37.003Z,19.70
2019-05-23T19:43:55.196Z,19.70
2019-05-23T19:46:24.046Z,19.70
2019-05-23T19:48:52.958Z,19.50
2019-05-23T19:51:21.816Z,19.40
2019-05-23T19:53:51.408Z,19.30
2019-05-23T19:56:21.077Z,19.20
2019-05-23T19:58:49.890Z,19.10
2019-05-23T20:01:18.757Z,18.90
2019-05-23T20:03:47.643Z,18.80
2019-05-23T20:06:16.496Z,18.80
2019-05-23T20:08:45.327Z,18.70
2019-05-23T20:11:14.195Z,18.70
2019-05-23T20:13:43.080Z,18.70
2019-05-23T20:16:11.980Z,18.70
2019-05-23T20:18:41.523Z,18.60
2019-05-23T20:21:10.373Z,18.60
2019-05-23T20:23:39.208Z,18.60
2019-05-23T20:26:08.618Z,18.60
2019-05-23T20:28:39.841Z,18.50
2019-05-23T20:31:05.794Z,18.50
2019-05-23T20:33:34.647Z,18.40
2019-05-23T20:36:03.537Z,18.20
2019-05-23T20:38:32.349Z,18.10
2019-05-23T20:41:01.203Z,18.10
2019-05-23T20:43:30.073Z,18.10
2019-05-23T20:45:58.929Z,18.10
2019-05-23T20:48:27.965Z,18.10
2019-05-23T20:50:56.704Z,18.00
2019-05-23T20:53:25.539Z,18.00
2019-05-23T20:55:55.166Z,18.00
2019-05-23T20:58:23.974Z,17.90
2019-05-23T21:00:54.320Z,17.80
2019-05-23T21:03:23.177Z,17.80
2019-05-23T21:05:52.023Z,17.80
2019-05-23T21:08:20.870Z,17.80
2019-05-23T21:13:19.162Z,17.60
2019-05-23T21:15:48.028Z,17.60
2019-05-23T21:18:16.874Z,17.60
2019-05-23T21:20:45.735Z,17.60
2019-05-23T21:23:15.333Z,17.50
2019-05-23T21:25:44.185Z,17.50
2019-05-23T21:28:13.029Z,17.40
2019-05-23T21:30:41.940Z,17.40
2019-05-23T21:33:11.500Z,17.30
2019-05-23T21:35:40.337Z,17.10
2019-05-23T21:38:09.192Z,17.10
2019-05-23T21:40:39.609Z,17.00
2019-05-23T21:45:37.885Z,16.90
2019-05-23T21:48:06.771Z,17.00
2019-05-23T21:50:35.637Z,17.00
2019-05-23T21:53:04.598Z,17.00
2019-05-23T21:55:35.158Z,16.80
2019-05-23T21:58:04.707Z,16.60
2019-05-23T22:00:51.707Z,16.60
2019-05-23T22:03:20.542Z,16.60
2019-05-23T22:05:49.379Z,16.60
2019-05-23T22:08:18.224Z,16.50
2019-05-23T22:10:47.077Z,16.50
2019-05-23T22:13:19.817Z,16.50
2019-05-23T22:15:45.491Z,16.50
2019-05-23T22:18:15.090Z,16.50
2019-05-23T22:20:44.681Z,16.50
2019-05-23T22:25:42.969Z,16.40
2019-05-23T22:30:41.263Z,16.40
2019-05-23T22:33:10.112Z,16.30
2019-05-23T22:35:39.015Z,16.30
2019-05-23T22:38:07.846Z,16.20
2019-05-23T22:40:38.711Z,16.20
2019-05-23T22:43:18.653Z,16.20
2019-05-23T22:45:34.425Z,16.20
2019-05-23T22:48:04.007Z,16.10
2019-05-23T22:50:32.848Z,16.10
2019-05-23T22:53:01.733Z,16.00
2019-05-23T22:55:30.589Z,16.00
2019-05-23T22:57:59.425Z,16.00
2019-05-23T23:00:29.035Z,15.90
2019-05-23T23:02:57.891Z,15.90
2019-05-23T23:05:26.717Z,15.90
2019-05-23T23:07:55.618Z,15.80
2019-05-23T23:10:24.440Z,15.80
2019-05-23T23:12:53.292Z,15.90
2019-05-23T23:15:22.140Z,15.80
2019-05-23T23:17:51.781Z,15.70
2019-05-23T23:20:20.621Z,15.70
2019-05-23T23:22:49.475Z,15.80
2019-05-23T23:25:18.323Z,15.70
2019-05-23T23:27:47.179Z,15.70
2019-05-23T23:32:45.461Z,15.60
2019-05-23T23:35:14.313Z,15.40
2019-05-23T23:37:43.161Z,15.40
2019-05-23T23:40:12.267Z,15.20
2019-05-23T23:42:40.930Z,15.30
2019-05-23T23:45:15.182Z,15.30
2019-05-23T23:47:49.582Z,15.40
2019-05-23T23:50:23.935Z,15.10
2019-05-23T23:52:58.430Z,15.20
2019-05-23T23:55:32.851Z,15.10
2019-05-23T23:58:01.083Z,15.00
